Time;durP1;ratioP1;P1;durP2;ratioP2;P2;SDS_P1;SDS_P2;PMS_P1;PMS_P2;Temp;Humidity;BMP_temperature;BMP_pressure;BME280_temperature;BME280_humidity;BME280_pressure;Samples;Min_cycle;Max_cycle;Signal;HPM_P1;HPM_P2
2021/08/04 00:01:16;;;;;;;3.70;1.95;;;12.70;98.00;;;;;;6217660;23;20027;-69
2021/08/04 00:03:42;;;;;;;4.60;1.85;;;12.70;98.00;;;;;;6217417;23;20009;-69
2021/08/04 00:06:08;;;;;;;6.20;2.47;;;12.80;98.00;;;;;;6219196;23;20004;-69
2021/08/04 00:08:34;;;;;;;4.43;2.00;;;12.80;98.00;;;;;;6217847;23;20366;-69
2021/08/04 00:11:02;;;;;;;4.47;2.10;;;12.80;98.00;;;;;;6219013;23;20080;-69
2021/08/04 00:13:28;;;;;;;4.05;2.00;;;12.80;98.00;;;;;;6191715;23;20390;-70
2021/08/04 00:15:54;;;;;;;3.88;1.90;;;12.80;98.00;;;;;;6217503;23;20024;-69
2021/08/04 00:18:20;;;;;;;6.65;2.45;;;12.70;98.00;;;;;;6218786;23;20005;-69
2021/08/04 00:20:45;;;;;;;4.82;2.28;;;12.60;98.00;;;;;;6218720;23;20295;-69
2021/08/04 00:23:11;;;;;;;4.72;1.92;;;12.70;98.00;;;;;;6219071;23;20079;-69
2021/08/04 00:25:37;;;;;;;4.97;2.35;;;12.60;98.00;;;;;;6218463;23;20092;-69
2021/08/04 00:28:02;;;;;;;4.20;2.10;;;12.60;98.00;;;;;;6218468;23;20036;-70
2021/08/04 00:30:28;;;;;;;4.75;2.08;;;12.60;98.00;;;;;;6217144;23;20067;-69
2021/08/04 00:32:54;;;;;;;4.97;2.33;;;12.60;98.00;;;;;;6218664;23;20314;-70
2021/08/04 00:35:22;;;;;;;5.20;2.20;;;12.60;98.00;;;;;;6218559;23;19996;-70
2021/08/04 00:37:48;;;;;;;4.28;2.20;;;12.60;98.00;;;;;;6217281;23;20047;-69
2021/08/04 00:40:14;;;;;;;4.38;1.88;;;12.60;98.00;;;;;;6218929;23;20351;-70
2021/08/04 00:42:40;;;;;;;4.20;2.17;;;12.60;98.00;;;;;;6220328;23;20093;-70
2021/08/04 00:45:08;;;;;;;4.75;2.65;;;12.60;98.00;;;;;;6238891;23;20381;-70
2021/08/04 00:47:33;;;;;;;4.40;2.20;;;12.70;98.00;;;;;;6251178;23;20292;-70
2021/08/04 00:50:00;;;;;;;4.55;1.90;;;12.70;98.00;;;;;;6250854;23;20083;-70
2021/08/04 00:52:33;;;;;;;4.05;2.00;;;12.70;98.00;;;;;;6251121;23;20028;-69
2021/08/04 00:54:59;;;;;;;4.80;2.40;;;12.60;98.00;;;;;;6251216;23;19997;-70
2021/08/04 00:57:25;;;;;;;4.90;2.22;;;12.50;98.00;;;;;;6251101;23;20001;-70
2021/08/04 00:59:54;;;;;;;4.50;2.17;;;12.50;98.00;;;;;;6249256;23;20384;-70
2021/08/04 01:02:33;;;;;;;4.13;2.08;;;12.50;98.00;;;;;;6251283;23;20026;-70
2021/08/04 01:05:05;;;;;;;3.65;1.70;;;12.60;98.00;;;;;;6250303;23;20032;-70
2021/08/04 01:07:48;;;;;;;4.07;1.80;;;12.60;98.00;;;;;;6250018;23;20008;-70
2021/08/04 01:10:29;;;;;;;7.30;3.22;;;12.60;98.00;;;;;;6250182;23;20027;-70
2021/08/04 01:13:09;;;;;;;3.92;1.95;;;12.60;98.00;;;;;;6249621;23;20034;-70
2021/08/04 01:15:45;;;;;;;4.57;2.08;;;12.60;98.00;;;;;;6248610;23;20000;-70
2021/08/04 01:18:16;;;;;;;4.18;1.90;;;12.50;98.00;;;;;;6249762;23;20062;-70
2021/08/04 01:20:43;;;;;;;3.70;2.05;;;12.40;98.00;;;;;;6250024;23;20004;-69
2021/08/04 01:23:22;;;;;;;4.32;2.22;;;12.50;98.00;;;;;;6250076;23;20039;-70
2021/08/04 01:26:06;;;;;;;4.80;2.00;;;12.50;98.00;;;;;;6223614;23;20086;-69
2021/08/04 01:28:55;;;;;;;5.57;2.15;;;12.50;98.00;;;;;;6223055;23;20012;-70
2021/08/04 01:31:31;;;;;;;5.00;2.45;;;12.60;98.00;;;;;;6248561;23;20000;-70
2021/08/04 01:33:59;;;;;;;6.20;2.40;;;12.60;98.00;;;;;;6249436;23;20094;-69
2021/08/04 01:36:26;;;;;;;5.63;2.00;;;12.60;98.00;;;;;;6248683;23;20090;-70
2021/08/04 01:38:57;;;;;;;4.38;2.22;;;12.50;98.00;;;;;;6222944;23;20007;-70
2021/08/04 01:41:25;;;;;;;5.07;2.20;;;12.50;98.00;;;;;;6223229;23;20055;-70
2021/08/04 01:43:52;;;;;;;4.63;2.20;;;12.50;98.00;;;;;;6248585;23;20008;-70
2021/08/04 01:46:20;;;;;;;4.13;2.17;;;12.50;98.00;;;;;;6249144;23;20054;-70
2021/08/04 01:48:48;;;;;;;4.57;1.90;;;12.50;98.00;;;;;;6249280;23;20043;-70
2021/08/04 01:51:15;;;;;;;4.78;2.17;;;12.60;98.00;;;;;;6249422;23;20036;-70
2021/08/04 01:53:44;;;;;;;4.38;2.17;;;12.60;98.00;;;;;;6248479;23;20008;-69
2021/08/04 01:56:14;;;;;;;5.50;2.28;;;12.70;98.00;;;;;;6250834;23;19996;-70
2021/08/04 01:58:41;;;;;;;5.18;2.20;;;12.60;98.00;;;;;;6250567;23;20001;-70
2021/08/04 02:01:07;;;;;;;4.18;1.90;;;12.60;98.00;;;;;;6249402;23;20004;-70
2021/08/04 02:03:33;;;;;;;6.05;2.72;;;12.60;98.00;;;;;;6249262;23;20059;-70
2021/08/04 02:06:08;;;;;;;4.15;2.08;;;12.60;98.00;;;;;;6250499;23;20305;-70
2021/08/04 02:08:40;;;;;;;3.92;1.85;;;12.70;98.00;;;;;;6250283;23;20030;-70
2021/08/04 02:11:21;;;;;;;4.40;2.15;;;12.70;98.00;;;;;;6248909;23;20000;-70
2021/08/04 02:14:00;;;;;;;4.25;2.20;;;12.70;98.00;;;;;;6248480;23;20008;-70
2021/08/04 02:16:51;;;;;;;4.43;2.00;;;12.60;98.00;;;;;;6248778;23;20001;-70
2021/08/04 02:19:38;;;;;;;6.72;2.17;;;12.60;98.00;;;;;;6250659;23;20340;-70
2021/08/04 02:22:19;;;;;;;4.78;2.22;;;12.50;98.00;;;;;;6223848;23;20087;-70
2021/08/04 02:24:50;;;;;;;3.58;1.85;;;12.50;98.00;;;;;;6249422;23;20001;-70
2021/08/04 02:27:18;;;;;;;5.90;2.10;;;12.40;98.00;;;;;;6250307;23;19996;-70
2021/08/04 02:29:49;;;;;;;5.05;2.20;;;12.40;98.00;;;;;;6248887;23;20028;-69
2021/08/04 02:32:15;;;;;;;4.53;2.28;;;12.40;98.00;;;;;;6249904;23;20008;-69
2021/08/04 02:34:42;;;;;;;12.07;3.33;;;12.40;98.00;;;;;;6250379;23;20000;-70
2021/08/04 02:37:10;;;;;;;5.35;2.33;;;12.40;98.00;;;;;;6249001;23;20266;-70
2021/08/04 02:39:36;;;;;;;4.07;2.20;;;12.40;98.00;;;;;;6249192;23;20003;-70
2021/08/04 02:42:04;;;;;;;4.45;2.33;;;12.40;98.00;;;;;;6250040;23;19996;-70
2021/08/04 02:44:30;;;;;;;4.55;2.38;;;12.40;98.00;;;;;;6248652;23;20016;-70
2021/08/04 02:46:56;;;;;;;4.13;2.20;;;12.30;98.00;;;;;;6249960;23;20003;-70
2021/08/04 02:49:23;;;;;;;4.38;2.40;;;12.30;98.00;;;;;;6250672;23;20349;-70
2021/08/04 02:51:50;;;;;;;4.82;2.55;;;12.30;98.00;;;;;;6247924;23;20319;-70
2021/08/04 02:54:19;;;;;;;4.78;2.22;;;12.30;98.00;;;;;;6249114;23;20036;-70
2021/08/04 02:56:46;;;;;;;4.72;2.03;;;12.30;98.00;;;;;;6249518;23;20075;-69
2021/08/04 02:59:13;;;;;;;5.00;2.33;;;12.30;98.00;;;;;;6247230;23;20011;-70
2021/08/04 03:01:39;;;;;;;3.90;2.10;;;12.30;98.00;;;;;;6249259;23;20000;-70
2021/08/04 03:04:05;;;;;;;4.95;2.40;;;12.30;98.00;;;;;;6248574;23;20031;-69
2021/08/04 03:06:31;;;;;;;3.70;1.90;;;12.30;98.00;;;;;;6249660;23;20374;-70
2021/08/04 03:08:57;;;;;;;5.57;2.20;;;12.30;98.00;;;;;;6249782;23;20008;-70
2021/08/04 03:11:24;;;;;;;4.95;2.15;;;12.30;98.00;;;;;;6249464;23;20031;-69
2021/08/04 03:13:50;;;;;;;6.43;2.22;;;12.20;98.00;;;;;;6223328;23;20012;-70
2021/08/04 03:16:16;;;;;;;4.70;2.30;;;12.20;98.00;;;;;;6247923;23;20004;-70
2021/08/04 03:18:43;;;;;;;5.13;2.05;;;12.10;98.00;;;;;;6250228;23;20000;-70
2021/08/04 03:21:09;;;;;;;4.78;2.30;;;12.00;98.00;;;;;;6248283;23;20079;-70
2021/08/04 03:23:35;;;;;;;4.82;2.50;;;12.00;98.00;;;;;;6249328;23;19999;-70
2021/08/04 03:26:01;;;;;;;5.60;2.72;;;12.00;98.00;;;;;;6249880;23;20346;-70
2021/08/04 03:28:27;;;;;;;5.65;2.80;;;12.00;98.00;;;;;;6249765;23;20008;-70
2021/08/04 03:30:54;;;;;;;4.93;2.55;;;12.10;98.00;;;;;;6247739;23;20008;-70
2021/08/04 03:33:21;;;;;;;4.88;2.47;;;12.00;98.00;;;;;;6249652;23;20004;-70
2021/08/04 03:35:47;;;;;;;5.63;2.20;;;12.00;98.00;;;;;;6248691;23;20079;-70
2021/08/04 03:38:13;;;;;;;4.10;2.08;;;12.00;98.00;;;;;;6249886;23;19996;-70
2021/08/04 03:40:39;;;;;;;4.65;2.50;;;12.00;98.00;;;;;;6249739;23;20258;-70
2021/08/04 03:43:05;;;;;;;4.57;2.50;;;12.00;98.00;;;;;;6248080;23;20055;-70
2021/08/04 03:45:31;;;;;;;4.88;2.42;;;11.90;98.00;;;;;;6215233;23;20020;-70
2021/08/04 03:48:00;;;;;;;4.63;2.30;;;11.90;98.00;;;;;;6218452;23;20083;-70
2021/08/04 03:50:26;;;;;;;5.97;2.53;;;11.80;98.00;;;;;;6218923;23;20008;-70
2021/08/04 03:52:54;;;;;;;6.10;2.80;;;11.80;98.00;;;;;;6218969;23;20005;-70
2021/08/04 03:55:21;;;;;;;5.07;2.55;;;11.90;98.00;;;;;;6218699;23;20409;-70
2021/08/04 03:57:47;;;;;;;5.15;2.45;;;11.80;98.00;;;;;;6217693;23;20378;-71
2021/08/04 04:00:15;;;;;;;8.95;2.92;;;11.80;98.00;;;;;;6217203;23;20001;-70
2021/08/04 04:02:41;;;;;;;14.30;2.70;;;11.80;98.00;;;;;;6218096;23;20000;-70
2021/08/04 04:05:08;;;;;;;5.03;2.28;;;11.90;98.00;;;;;;6218228;23;20009;-70
2021/08/04 04:07:35;;;;;;;3.78;2.00;;;11.90;98.00;;;;;;6216308;23;20004;-70
2021/08/04 04:10:01;;;;;;;4.65;2.20;;;11.90;98.00;;;;;;6218370;23;20001;-70
2021/08/04 04:12:29;;;;;;;4.97;2.42;;;12.00;98.00;;;;;;6217727;23;20009;-70
2021/08/04 04:14:56;;;;;;;5.82;2.30;;;12.10;98.00;;;;;;6216720;23;20007;-70
2021/08/04 04:17:22;;;;;;;6.65;2.67;;;12.10;98.00;;;;;;6218074;23;20084;-70
2021/08/04 04:19:48;;;;;;;4.35;2.38;;;12.10;98.00;;;;;;6217852;23;20004;-70
2021/08/04 04:22:13;;;;;;;4.43;2.38;;;12.20;98.00;;;;;;6217912;23;20005;-70
2021/08/04 04:24:39;;;;;;;5.68;2.63;;;12.20;98.00;;;;;;6218360;23;20004;-70
2021/08/04 04:27:06;;;;;;;6.82;2.80;;;12.20;98.00;;;;;;6218585;23;20318;-70
2021/08/04 04:29:32;;;;;;;5.13;2.17;;;12.20;98.00;;;;;;6217380;23;20008;-70
2021/08/04 04:31:58;;;;;;;7.50;2.80;;;12.20;98.00;;;;;;6218815;23;20423;-70
2021/08/04 04:34:24;;;;;;;4.20;2.13;;;12.30;98.00;;;;;;6218040;23;20027;-70
2021/08/04 04:36:49;;;;;;;5.63;2.70;;;12.30;98.00;;;;;;6218410;23;20004;-70
2021/08/04 04:39:15;;;;;;;5.82;2.40;;;12.30;98.00;;;;;;6218811;23;20004;-70
2021/08/04 04:41:41;;;;;;;7.03;2.05;;;12.30;98.00;;;;;;6216813;23;20329;-70
2021/08/04 04:44:08;;;;;;;5.95;2.45;;;12.30;98.00;;;;;;6225752;23;20392;-71
2021/08/04 04:46:33;;;;;;;5.65;2.30;;;12.40;98.00;;;;;;6247846;23;20083;-70
2021/08/04 04:48:59;;;;;;;6.35;2.50;;;12.40;98.00;;;;;;6249411;23;20031;-69
2021/08/04 04:51:25;;;;;;;4.78;2.40;;;12.40;98.00;;;;;;6249189;23;20007;-69
2021/08/04 04:53:51;;;;;;;4.15;2.20;;;12.40;98.00;;;;;;6249385;23;20035;-69
2021/08/04 04:56:18;;;;;;;6.45;2.53;;;12.40;98.00;;;;;;6248727;23;20051;-70
2021/08/04 04:58:43;;;;;;;5.60;2.22;;;12.40;98.00;;;;;;6248862;23;19996;-69
2021/08/04 05:01:09;;;;;;;5.15;2.58;;;12.40;98.00;;;;;;6247000;23;20000;-70
2021/08/04 05:03:35;;;;;;;6.60;2.40;;;12.50;98.00;;;;;;6248920;23;20004;-69
2021/08/04 05:06:01;;;;;;;4.43;2.40;;;12.50;98.00;;;;;;6248616;23;20015;-69
2021/08/04 05:08:27;;;;;;;6.50;2.50;;;12.60;98.00;;;;;;6249019;23;20078;-70
2021/08/04 05:10:53;;;;;;;3.72;2.05;;;12.70;98.00;;;;;;6249080;23;20011;-70
2021/08/04 05:13:19;;;;;;;7.18;2.65;;;12.80;98.00;;;;;;6247995;23;20361;-70
2021/08/04 05:15:45;;;;;;;4.90;2.45;;;12.90;98.00;;;;;;6247285;23;20027;-69
2021/08/04 05:18:11;;;;;;;4.90;2.05;;;12.90;98.00;;;;;;6222526;23;20008;-69
2021/08/04 05:20:36;;;;;;;5.45;2.42;;;13.00;98.00;;;;;;6222351;23;20363;-69
2021/08/04 05:23:03;;;;;;;4.85;2.20;;;13.10;98.00;;;;;;6248687;23;20000;-70
2021/08/04 05:25:29;;;;;;;6.35;2.00;;;13.30;98.00;;;;;;6248815;23;20012;-70
2021/08/04 05:27:55;;;;;;;4.05;1.92;;;13.30;98.00;;;;;;6250323;23;20000;-70
2021/08/04 05:30:21;;;;;;;4.60;2.10;;;13.40;98.00;;;;;;6249375;23;20004;-70
2021/08/04 05:32:47;;;;;;;4.50;1.98;;;13.40;98.00;;;;;;6250664;23;20087;-69
2021/08/04 05:35:13;;;;;;;4.95;2.05;;;13.50;98.00;;;;;;6251034;23;20007;-70
2021/08/04 05:37:39;;;;;;;3.85;2.00;;;13.60;98.00;;;;;;6250758;23;20001;-70
2021/08/04 05:40:06;;;;;;;6.07;2.13;;;13.70;98.00;;;;;;6250741;23;20022;-69
2021/08/04 05:42:32;;;;;;;4.75;2.08;;;13.70;98.00;;;;;;6249722;23;20036;-70
2021/08/04 05:44:58;;;;;;;4.20;2.22;;;13.80;98.00;;;;;;6248499;23;20023;-70
2021/08/04 05:47:24;;;;;;;4.32;2.30;;;13.90;98.00;;;;;;6249339;23;20008;-70
2021/08/04 05:49:51;;;;;;;6.28;2.30;;;13.90;98.00;;;;;;6250117;23;20008;-69
2021/08/04 05:52:17;;;;;;;3.97;1.90;;;14.00;98.00;;;;;;6248634;23;20346;-70
2021/08/04 05:54:43;;;;;;;3.97;1.88;;;14.00;98.00;;;;;;6250023;23;20052;-69
2021/08/04 05:57:09;;;;;;;4.90;2.10;;;13.90;98.00;;;;;;6250299;23;20083;-70
2021/08/04 05:59:37;;;;;;;4.43;2.20;;;13.80;98.00;;;;;;6248597;23;20263;-70
2021/08/04 06:02:03;;;;;;;4.55;2.20;;;13.80;98.00;;;;;;6250074;23;20087;-69
2021/08/04 06:04:29;;;;;;;3.65;1.88;;;13.80;98.00;;;;;;6250355;23;20022;-69
2021/08/04 06:06:55;;;;;;;3.90;2.15;;;13.80;98.00;;;;;;6249185;23;19996;-69
2021/08/04 06:09:21;;;;;;;4.72;2.20;;;13.90;98.00;;;;;;6250474;23;20004;-69
2021/08/04 06:11:47;;;;;;;5.68;2.28;;;14.00;97.80;;;;;;6250534;23;20419;-70
2021/08/04 06:14:14;;;;;;;3.92;1.95;;;14.00;98.00;;;;;;6248910;23;20054;-70
2021/08/04 06:16:40;;;;;;;4.65;2.17;;;14.20;98.00;;;;;;6250260;23;20071;-69
2021/08/04 06:19:06;;;;;;;4.78;2.20;;;14.30;98.00;;;;;;6250312;23;20031;-69
2021/08/04 06:21:32;;;;;;;5.47;2.20;;;14.50;97.70;;;;;;6250397;23;19996;-69
2021/08/04 06:23:58;;;;;;;5.22;1.70;;;14.70;97.60;;;;;;6249220;23;20270;-69
2021/08/04 06:26:24;;;;;;;3.85;1.90;;;15.00;97.00;;;;;;6250365;23;20007;-69
2021/08/04 06:28:50;;;;;;;4.22;1.95;;;15.30;96.20;;;;;;6249992;23;20123;-70
2021/08/04 06:31:17;;;;;;;3.60;1.70;;;15.60;95.20;;;;;;6248853;23;20266;-69
2021/08/04 06:33:43;;;;;;;4.70;2.25;;;15.70;94.90;;;;;;6250135;23;20066;-69
2021/08/04 06:36:09;;;;;;;3.90;1.80;;;15.70;94.40;;;;;;6250266;23;20357;-69
2021/08/04 06:38:35;;;;;;;8.40;2.00;;;15.60;94.70;;;;;;6249581;23;19997;-69
2021/08/04 06:41:01;;;;;;;4.88;2.00;;;15.60;94.00;;;;;;6249562;23;20004;-69
2021/08/04 06:43:27;;;;;;;3.33;1.63;;;15.60;93.10;;;;;;6223452;23;20016;-69
2021/08/04 06:45:53;;;;;;;5.85;2.38;;;15.70;93.10;;;;;;6248682;23;20020;-69
2021/08/04 06:48:19;;;;;;;5.28;1.90;;;15.90;93.90;;;;;;6250327;23;20269;-69
2021/08/04 06:50:45;;;;;;;3.53;1.90;;;16.00;94.60;;;;;;6249711;23;20007;-70
2021/08/04 06:53:11;;;;;;;4.35;1.75;;;15.90;94.20;;;;;;6249567;23;20010;-69
2021/08/04 06:55:36;;;;;;;5.45;2.15;;;16.10;94.00;;;;;;6250000;23;20000;-69
2021/08/04 06:58:03;;;;;;;4.95;1.92;;;16.20;93.20;;;;;;6249552;23;20377;-69
2021/08/04 07:00:29;;;;;;;4.15;1.92;;;16.40;93.40;;;;;;6248415;23;20020;-69
2021/08/04 07:02:55;;;;;;;7.07;2.03;;;16.50;92.50;;;;;;6249908;23;20326;-69
2021/08/04 07:05:21;;;;;;;5.38;2.45;;;16.80;92.20;;;;;;6249902;23;20008;-69
2021/08/04 07:07:47;;;;;;;3.92;1.98;;;17.00;91.90;;;;;;6249459;23;20019;-69
2021/08/04 07:10:14;;;;;;;3.75;2.00;;;17.30;90.70;;;;;;6249408;23;20008;-69
2021/08/04 07:12:40;;;;;;;5.30;2.10;;;17.50;89.80;;;;;;6248771;23;20019;-69
2021/08/04 07:15:07;;;;;;;3.78;1.70;;;17.40;89.60;;;;;;6248103;23;20357;-69
2021/08/04 07:17:49;;;;;;;4.55;2.03;;;17.40;89.70;;;;;;6250072;23;20417;-71
2021/08/04 07:20:16;;;;;;;3.42;1.58;;;17.40;89.90;;;;;;6249351;23;20012;-71
2021/08/04 07:22:43;;;;;;;4.80;1.70;;;17.40;90.10;;;;;;6249713;23;20000;-71
2021/08/04 07:25:10;;;;;;;3.60;1.77;;;17.30;90.50;;;;;;6249309;23;20008;-70
2021/08/04 07:27:35;;;;;;;4.70;1.85;;;17.40;90.60;;;;;;6249759;23;20023;-72
2021/08/04 07:30:03;;;;;;;4.25;1.92;;;17.60;89.60;;;;;;6248121;23;20004;-71
2021/08/04 07:32:28;;;;;;;4.40;1.63;;;17.60;89.30;;;;;;6249693;23;20000;-71
2021/08/04 07:34:54;;;;;;;4.38;1.70;;;17.90;88.80;;;;;;6249456;23;20001;-71
2021/08/04 07:37:19;;;;;;;3.88;1.65;;;18.20;88.10;;;;;;6249682;23;20055;-71
2021/08/04 07:39:45;;;;;;;4.10;1.58;;;18.60;86.40;;;;;;6249714;23;20001;-72
2021/08/04 07:42:11;;;;;;;4.22;2.13;;;19.00;85.50;;;;;;6249556;23;20009;-71
2021/08/04 07:44:36;;;;;;;3.42;1.67;;;19.20;84.90;;;;;;6248042;23;20020;-72
2021/08/04 07:47:02;;;;;;;4.25;1.85;;;19.00;85.80;;;;;;6249418;23;20003;-72
2021/08/04 07:49:27;;;;;;;6.35;1.80;;;18.70;85.70;;;;;;6249800;23;20004;-72
2021/08/04 07:51:53;;;;;;;4.82;1.88;;;18.50;86.20;;;;;;6248834;23;20309;-72
2021/08/04 07:54:19;;;;;;;3.92;1.60;;;18.40;86.00;;;;;;6222698;23;20269;-71
2021/08/04 07:56:47;;;;;;;5.78;1.92;;;18.30;85.30;;;;;;6249338;23;20099;-71
2021/08/04 07:59:13;;;;;;;3.63;1.63;;;18.30;85.80;;;;;;6248763;23;20262;-71
2021/08/04 08:01:39;;;;;;;4.38;1.60;;;18.50;87.70;;;;;;6248514;23;19996;-71
2021/08/04 08:04:05;;;;;;;3.55;1.40;;;18.40;85.40;;;;;;6249470;23;20000;-71
2021/08/04 08:06:30;;;;;;;5.00;1.70;;;18.40;87.10;;;;;;6248761;23;20309;-71
2021/08/04 08:08:56;;;;;;;3.05;1.50;;;18.50;86.40;;;;;;6248770;23;20008;-71
2021/08/04 08:11:22;;;;;;;3.88;1.75;;;18.70;85.70;;;;;;6249052;23;20007;-71
2021/08/04 08:13:48;;;;;;;4.78;1.70;;;18.80;85.50;;;;;;6249203;23;20004;-71
2021/08/04 08:16:14;;;;;;;2.95;1.48;;;18.50;86.90;;;;;;6247840;23;20451;-71
2021/08/04 08:18:40;;;;;;;4.85;1.60;;;18.50;87.90;;;;;;6249544;23;20332;-71
2021/08/04 08:21:06;;;;;;;4.88;1.60;;;18.30;86.60;;;;;;6249538;23;19997;-71
2021/08/04 08:23:31;;;;;;;4.05;1.67;;;18.20;88.40;;;;;;6248970;23;20019;-71
2021/08/04 08:25:57;;;;;;;6.38;2.15;;;18.50;87.10;;;;;;6249317;23;20073;-71
2021/08/04 08:28:23;;;;;;;3.25;1.63;;;18.90;86.90;;;;;;6249116;23;20261;-71
2021/08/04 08:30:48;;;;;;;3.38;1.63;;;19.30;85.20;;;;;;6247240;23;20385;-71
2021/08/04 08:33:14;;;;;;;3.55;1.67;;;19.80;85.00;;;;;;6249509;23;20000;-71
2021/08/04 08:35:39;;;;;;;4.35;1.60;;;20.40;81.80;;;;;;6249494;23;20003;-71
2021/08/04 08:38:05;;;;;;;2.97;1.55;;;20.70;81.60;;;;;;6222784;23;20358;-72
2021/08/04 08:40:31;;;;;;;4.70;1.70;;;20.50;81.90;;;;;;6248601;23;20024;-72
2021/08/04 08:42:57;;;;;;;3.30;1.55;;;20.30;80.50;;;;;;6248727;23;20136;-72
2021/08/04 08:45:23;;;;;;;4.07;1.75;;;20.10;80.70;;;;;;6246892;23;20394;-71
2021/08/04 08:47:49;;;;;;;4.38;2.47;;;20.10;80.90;;;;;;6248991;23;20004;-71
2021/08/04 08:50:19;;;;;;;3.88;1.80;;;20.20;81.10;;;;;;6249046;23;20008;-72
2021/08/04 08:52:47;;;;;;;3.67;1.65;;;19.90;80.90;;;;;;6248564;23;20027;-71
2021/08/04 08:55:13;;;;;;;3.58;1.52;;;19.50;81.20;;;;;;6249285;23;20004;-71
2021/08/04 08:57:39;;;;;;;4.78;2.45;;;19.20;81.30;;;;;;6249225;23;20083;-71
2021/08/04 09:00:09;;;;;;;2.97;1.40;;;18.80;81.50;;;;;;6247481;23;19996;-71
2021/08/04 09:02:35;;;;;;;5.60;1.67;;;18.60;82.50;;;;;;6249736;23;20023;-71
2021/08/04 09:05:03;;;;;;;3.92;1.80;;;18.50;84.50;;;;;;6250934;23;20004;-71
2021/08/04 09:07:34;;;;;;;3.20;1.52;;;18.70;84.40;;;;;;6250934;23;20004;-71
2021/08/04 09:10:00;;;;;;;4.00;1.70;;;19.00;83.50;;;;;;6251190;23;20000;-71
2021/08/04 09:12:26;;;;;;;3.85;1.65;;;18.80;82.20;;;;;;6250694;23;20004;-72
2021/08/04 09:14:52;;;;;;;3.30;1.52;;;18.80;82.30;;;;;;6249520;23;20000;-71
2021/08/04 09:17:18;;;;;;;3.72;1.67;;;19.40;81.70;;;;;;6250641;23;19996;-71
2021/08/04 09:19:47;;;;;;;3.30;1.60;;;19.50;82.40;;;;;;6224294;23;20031;-72
2021/08/04 09:22:24;;;;;;;3.42;1.60;;;19.80;81.80;;;;;;6251021;23;20004;-72
2021/08/04 09:25:02;;;;;;;3.65;1.80;;;19.40;80.10;;;;;;6250565;23;20000;-71
2021/08/04 09:27:49;;;;;;;3.20;1.42;;;19.10;83.00;;;;;;6251083;23;20022;-71
2021/08/04 09:30:32;;;;;;;3.47;1.50;;;19.20;83.20;;;;;;6248999;23;20026;-71
2021/08/04 09:33:17;;;;;;;4.03;1.75;;;19.80;81.80;;;;;;6250810;23;20011;-72
2021/08/04 09:35:52;;;;;;;2.80;1.40;;;20.20;79.90;;;;;;6250720;23;20122;-70
2021/08/04 09:38:21;;;;;;;4.22;1.48;;;20.30;78.00;;;;;;6250844;23;20003;-70
2021/08/04 09:41:15;;;;;;;4.50;1.63;;;20.10;79.10;;;;;;6250833;23;20000;-71
2021/08/04 09:43:40;;;;;;;2.75;1.30;;;20.50;77.80;;;;;;6249786;23;20004;-70
2021/08/04 09:46:19;;;;;;;3.10;1.33;;;20.90;77.30;;;;;;6221483;23;20102;-72
2021/08/04 09:48:45;;;;;;;5.35;1.50;;;21.30;76.20;;;;;;6249715;23;20306;-71
2021/08/04 09:51:16;;;;;;;3.30;1.35;;;21.70;74.70;;;;;;6249505;23;20030;-71
2021/08/04 09:53:46;;;;;;;3.78;1.50;;;22.70;72.40;;;;;;6249468;23;20004;-71
2021/08/04 09:56:18;;;;;;;3.22;1.30;;;23.30;71.30;;;;;;6249284;23;20011;-72
2021/08/04 09:58:49;;;;;;;3.28;1.65;;;23.70;70.70;;;;;;6249679;23;20004;-72
2021/08/04 10:01:17;;;;;;;4.68;1.50;;;24.00;69.50;;;;;;6247459;23;20000;-71
2021/08/04 10:04:07;;;;;;;2.25;1.17;;;24.20;70.10;;;;;;6249505;23;20025;-71
2021/08/04 10:06:37;;;;;;;3.25;1.30;;;24.30;69.00;;;;;;6221918;23;20263;-70
2021/08/04 10:09:05;;;;;;;2.53;1.33;;;24.10;70.20;;;;;;6248847;23;20000;-69
2021/08/04 10:11:31;;;;;;;5.50;1.33;;;23.70;70.40;;;;;;6250206;23;20054;-71
2021/08/04 10:13:59;;;;;;;2.80;1.30;;;23.50;70.10;;;;;;6249963;23;20004;-71
2021/08/04 10:16:33;;;;;;;2.47;1.27;;;23.20;69.90;;;;;;6248216;23;19996;-71
2021/08/04 10:19:01;;;;;;;2.55;1.13;;;23.30;69.70;;;;;;6249884;23;20023;-71
2021/08/04 10:21:27;;;;;;;3.03;1.33;;;23.70;69.20;;;;;;6250308;23;20004;-70
2021/08/04 10:23:54;;;;;;;3.60;1.30;;;24.00;69.10;;;;;;6249727;23;20054;-71
2021/08/04 10:26:21;;;;;;;2.55;1.10;;;23.70;68.80;;;;;;6250358;23;20075;-71
2021/08/04 10:28:55;;;;;;;2.78;1.40;;;23.20;70.30;;;;;;6249635;23;20012;-72
2021/08/04 10:31:21;;;;;;;;;;;23.90;69.60;;;;;;6248334;23;20015;-70
2021/08/04 10:33:47;;;;;;;3.28;1.30;;;23.50;67.60;;;;;;6223130;23;19909;-70
2021/08/04 10:36:20;;;;;;;3.15;1.20;;;22.80;70.70;;;;;;6249950;23;20002;-70
2021/08/04 10:38:49;;;;;;;2.70;1.30;;;22.60;72.00;;;;;;6249610;23;20306;-71
2021/08/04 10:41:14;;;;;;;5.15;1.50;;;22.20;71.40;;;;;;6249836;23;19996;-70
2021/08/04 10:43:52;;;;;;;3.60;1.55;;;22.20;72.90;;;;;;6249546;23;20127;-70
2021/08/04 10:46:29;;;;;;;3.70;1.50;;;22.30;73.80;;;;;;6221515;23;20377;-71
2021/08/04 10:49:04;;;;;;;4.32;1.58;;;22.30;74.30;;;;;;6249668;23;20392;-71
2021/08/04 10:51:43;;;;;;;4.47;1.50;;;21.80;75.70;;;;;;6250119;23;20004;-70
2021/08/04 10:54:14;;;;;;;3.55;1.60;;;21.90;76.00;;;;;;6249563;23;20432;-70
2021/08/04 10:56:48;;;;;;;3.22;1.70;;;21.70;75.50;;;;;;6249306;23;20000;-70
2021/08/04 10:59:13;;;;;;;3.53;1.50;;;21.40;76.30;;;;;;6248596;23;20175;-71
2021/08/04 11:01:48;;;;;;;3.67;1.50;;;21.10;77.00;;;;;;6249455;23;20029;-71
2021/08/04 11:04:35;;;;;;;3.10;1.58;;;20.90;77.00;;;;;;6249998;23;20007;-71
2021/08/04 11:07:15;;;;;;;4.38;1.63;;;21.00;76.90;;;;;;6230165;22;20000;-71
2021/08/04 11:09:43;;;;;;;2.83;1.30;;;21.20;76.10;;;;;;6249976;23;20266;-70
2021/08/04 11:12:11;;;;;;;2.80;1.33;;;21.60;76.50;;;;;;6249570;23;20445;-71
2021/08/04 11:14:47;;;;;;;3.85;1.42;;;21.90;75.00;;;;;;6247660;23;20008;-71
2021/08/04 11:17:57;;;;;;;3.50;1.40;;;22.30;74.70;;;;;;6249447;23;19997;-71
2021/08/04 11:20:23;;;;;;;2.33;1.23;;;22.90;74.30;;;;;;6249838;23;20370;-71
2021/08/04 11:22:53;;;;;;;3.97;1.60;;;23.40;72.10;;;;;;6249001;23;20000;-71
2021/08/04 11:25:48;;;;;;;3.22;1.50;;;23.10;72.30;;;;;;6249636;23;20004;-69
2021/08/04 11:28:17;;;;;;;4.05;1.63;;;22.80;72.50;;;;;;6222585;23;20143;-70
2021/08/04 11:30:53;;;;;;;2.50;1.30;;;22.90;72.80;;;;;;6248550;23;20006;-71
2021/08/04 11:33:18;;;;;;;3.20;1.38;;;23.10;73.20;;;;;;6249414;23;20028;-71
2021/08/04 11:35:45;;;;;;;3.50;1.40;;;22.80;72.40;;;;;;6249593;23;20050;-72
2021/08/04 11:38:11;;;;;;;3.28;1.60;;;23.00;73.50;;;;;;6249233;23;20012;-71
2021/08/04 11:40:37;;;;;;;4.28;1.67;;;23.20;72.20;;;;;;6249130;23;20073;-70
2021/08/04 11:43:03;;;;;;;3.08;1.20;;;23.60;71.40;;;;;;6248772;23;20075;-71
2021/08/04 11:45:29;;;;;;;2.63;1.35;;;23.70;71.30;;;;;;6248200;23;20091;-71
2021/08/04 11:47:55;;;;;;;4.25;1.70;;;24.00;70.30;;;;;;6249045;23;20011;-71
2021/08/04 11:50:20;;;;;;;3.42;1.50;;;24.30;69.80;;;;;;6249310;23;20000;-71
2021/08/04 11:52:46;;;;;;;3.47;1.55;;;24.00;68.00;;;;;;6249812;23;20004;-71
2021/08/04 11:55:15;;;;;;;3.28;1.42;;;23.70;70.00;;;;;;6249723;23;20262;-71
2021/08/04 11:57:49;;;;;;;3.58;1.50;;;23.60;71.80;;;;;;6250137;23;20004;-72
2021/08/04 12:00:17;;;;;;;;;;;23.40;72.30;;;;;;6248408;23;20010;-71
2021/08/04 12:02:44;;;;;;;3.85;1.30;;;23.60;70.60;;;;;;6249272;23;19922;-71
2021/08/04 12:05:11;;;;;;;3.28;1.48;;;24.00;70.70;;;;;;6249953;23;20000;-71
2021/08/04 12:07:42;;;;;;;3.67;1.63;;;24.10;71.00;;;;;;6222523;23;20004;-71
2021/08/04 12:10:16;;;;;;;3.47;1.45;;;23.60;71.00;;;;;;6248801;23;20079;-71
2021/08/04 12:12:52;;;;;;;2.67;1.30;;;22.80;72.60;;;;;;6249440;23;20357;-71
2021/08/04 12:15:23;;;;;;;3.40;1.40;;;22.60;72.20;;;;;;6248068;23;20080;-72
2021/08/04 12:17:56;;;;;;;3.15;1.60;;;22.20;74.40;;;;;;6248805;23;20026;-71
2021/08/04 12:20:24;;;;;;;2.93;1.60;;;22.30;74.10;;;;;;6249440;23;20000;-72
2021/08/04 12:22:57;;;;;;;3.35;1.35;;;22.50;74.00;;;;;;6222857;23;20008;-72
2021/08/04 12:25:23;;;;;;;2.40;1.27;;;22.80;73.30;;;;;;6249599;23;20000;-72
2021/08/04 12:27:51;;;;;;;3.33;1.50;;;23.00;73.90;;;;;;6249736;23;20000;-71
2021/08/04 12:30:34;;;;;;;3.42;1.58;;;22.80;72.70;;;;;;6247917;23;20007;-71
2021/08/04 12:33:20;;;;;;;3.55;1.48;;;22.60;72.90;;;;;;6249227;23;20007;-70
2021/08/04 12:36:04;;;;;;;3.42;1.50;;;22.80;73.50;;;;;;6249508;23;19996;-70
2021/08/04 12:38:41;;;;;;;3.92;1.52;;;22.10;74.50;;;;;;6249327;23;20034;-71
2021/08/04 12:41:15;;;;;;;3.17;1.50;;;21.70;76.00;;;;;;6249325;23;20007;-72
2021/08/04 12:43:42;;;;;;;3.85;1.33;;;21.50;76.80;;;;;;6249316;23;20035;-72
2021/08/04 12:46:09;;;;;;;2.92;1.50;;;21.70;77.60;;;;;;6247659;23;20016;-71
2021/08/04 12:48:41;;;;;;;2.78;1.40;;;21.70;76.50;;;;;;6222410;23;20010;-71
2021/08/04 12:51:19;;;;;;;3.58;1.58;;;21.80;76.10;;;;;;6249488;23;20000;-71
2021/08/04 12:54:01;;;;;;;3.90;1.77;;;21.80;76.30;;;;;;6249531;23;20031;-71
2021/08/04 12:56:40;;;;;;;3.13;1.60;;;21.80;76.60;;;;;;6249394;23;20000;-71